createdAt,value
2022-11-12T00:00:21.720Z,100.00
2022-11-12T00:03:08.462Z,100.00
2022-11-12T00:05:54.217Z,100.00
2022-11-12T00:08:39.887Z,100.00
2022-11-12T00:11:25.115Z,100.00
2022-11-12T00:14:10.554Z,100.00
2022-11-12T00:16:55.806Z,100.00
2022-11-12T00:19:41.187Z,100.00
2022-11-12T00:22:26.604Z,100.00
2022-11-12T00:25:11.946Z,100.00
2022-11-12T00:28:08.949Z,100.00
2022-11-12T00:30:54.280Z,100.00
2022-11-12T00:33:41.694Z,100.00
2022-11-12T00:36:27.018Z,100.00
2022-11-12T00:39:12.615Z,100.00
2022-11-12T00:41:58.044Z,100.00
2022-11-12T00:44:43.397Z,100.00
2022-11-12T00:47:28.954Z,100.00
2022-11-12T00:50:16.022Z,99.59
2022-11-12T00:53:01.271Z,99.61
2022-11-12T00:55:46.855Z,100.00
2022-11-12T00:58:34.700Z,98.80
2022-11-12T01:01:20.514Z,99.80
2022-11-12T01:04:06.515Z,99.58
2022-11-12T01:06:51.750Z,99.47
2022-11-12T01:09:37.376Z,99.48
2022-11-12T01:12:22.862Z,99.88
2022-11-12T01:15:08.983Z,99.74
2022-11-12T01:17:54.678Z,99.72
2022-11-12T01:20:40.222Z,99.61
2022-11-12T01:23:25.665Z,100.00
2022-11-12T01:26:13.953Z,100.00
2022-11-12T01:28:59.254Z,100.00
2022-11-12T01:31:44.712Z,100.00
2022-11-12T01:34:30.575Z,100.00
2022-11-12T01:37:16.091Z,100.00
2022-11-12T01:40:01.653Z,100.00
2022-11-12T01:42:52.683Z,100.00
2022-11-12T01:45:42.331Z,100.00
2022-11-12T01:48:33.038Z,100.00
2022-11-12T01:51:21.514Z,100.00
2022-11-12T01:54:10.897Z,100.00
2022-11-12T01:56:58.374Z,100.00
2022-11-12T01:59:47.654Z,100.00
2022-11-12T02:02:36.200Z,100.00
2022-11-12T02:05:24.000Z,100.00
2022-11-12T02:08:11.265Z,100.00
2022-11-12T02:10:56.771Z,100.00
2022-11-12T02:13:57.974Z,100.00
2022-11-12T02:16:46.015Z,100.00
2022-11-12T02:19:31.258Z,100.00
2022-11-12T02:22:16.669Z,100.00
2022-11-12T02:25:01.942Z,100.00
2022-11-12T02:27:51.812Z,100.00
2022-11-12T02:30:46.625Z,100.00
2022-11-12T02:33:31.979Z,100.00
2022-11-12T02:36:17.417Z,100.00
2022-11-12T02:39:02.825Z,100.00
2022-11-12T02:41:48.166Z,100.00
2022-11-12T02:44:33.793Z,100.00
2022-11-12T02:47:19.529Z,100.00
2022-11-12T02:50:05.430Z,100.00
2022-11-12T02:52:50.739Z,100.00
2022-11-12T02:55:36.191Z,100.00
2022-11-12T02:58:22.735Z,100.00
2022-11-12T03:01:08.489Z,100.00
2022-11-12T03:03:54.011Z,100.00
2022-11-12T03:25:42.310Z,100.00
2022-11-12T03:28:27.909Z,100.00
2022-11-12T03:31:13.578Z,100.00
2022-11-12T03:33:58.923Z,100.00
2022-11-12T03:36:44.309Z,100.00
2022-11-12T03:39:29.736Z,100.00
2022-11-12T03:42:14.951Z,100.00
2022-11-12T03:45:00.200Z,100.00
2022-11-12T03:47:50.478Z,100.00
2022-11-12T03:50:35.755Z,100.00
2022-11-12T03:53:21.092Z,100.00
2022-11-12T03:56:06.886Z,100.00
2022-11-12T03:58:52.268Z,100.00
2022-11-12T04:01:38.001Z,100.00
2022-11-12T04:04:23.611Z,99.99
2022-11-12T04:07:27.565Z,99.92
2022-11-12T04:10:13.130Z,99.91
2022-11-12T04:13:17.211Z,99.87
2022-11-12T04:16:49.329Z,99.85
2022-11-12T04:19:53.474Z,100.00
2022-11-12T04:22:38.932Z,99.61
2022-11-12T04:25:44.469Z,100.00
2022-11-12T04:28:29.923Z,100.00
2022-11-12T04:31:15.472Z,100.00
2022-11-12T04:34:20.945Z,99.79
2022-11-12T04:37:07.242Z,99.77
2022-11-12T04:39:53.473Z,98.87
2022-11-12T04:42:57.101Z,98.95
2022-11-12T04:45:45.197Z,98.70
2022-11-12T04:48:31.026Z,98.86
2022-11-12T04:51:34.866Z,98.06
2022-11-12T04:54:20.295Z,98.35
2022-11-12T04:57:05.918Z,97.86
2022-11-12T04:59:51.238Z,97.63
2022-11-12T05:02:36.549Z,98.61
2022-11-12T05:05:22.167Z,98.53
2022-11-12T05:08:07.628Z,99.60
2022-11-12T05:10:53.056Z,100.00
2022-11-12T05:13:38.316Z,99.61
2022-11-12T05:16:23.626Z,99.71
2022-11-12T05:19:09.297Z,98.93
2022-11-12T05:22:06.363Z,98.46
2022-11-12T05:24:51.831Z,98.33
2022-11-12T05:27:37.200Z,97.72
2022-11-12T05:30:22.495Z,98.44
2022-11-12T05:33:07.840Z,97.48
2022-11-12T05:35:56.416Z,96.57
2022-11-12T05:38:42.294Z,95.67
2022-11-12T05:41:32.897Z,96.05
2022-11-12T05:44:30.902Z,96.21
2022-11-12T05:47:16.851Z,97.82
2022-11-12T05:50:02.494Z,97.79
2022-11-12T05:52:47.807Z,98.62
2022-11-12T05:55:37.010Z,98.98
2022-11-12T05:58:22.500Z,98.87
2022-11-12T06:01:08.278Z,98.65
2022-11-12T06:03:53.521Z,98.07
2022-11-12T06:06:40.369Z,97.71
2022-11-12T06:09:25.657Z,97.55
2022-11-12T06:12:10.959Z,97.65
2022-11-12T06:14:56.537Z,98.66
2022-11-12T06:17:42.583Z,98.68
2022-11-12T06:20:27.845Z,98.09
2022-11-12T06:23:13.184Z,98.78
2022-11-12T06:25:58.667Z,99.21
2022-11-12T06:28:44.511Z,97.93
2022-11-12T06:31:29.835Z,97.14
2022-11-12T06:34:15.328Z,97.59
2022-11-12T06:37:00.711Z,97.66
2022-11-12T06:39:46.087Z,97.18
2022-11-12T06:42:31.621Z,96.34
2022-11-12T06:45:17.012Z,96.09
2022-11-12T06:48:02.544Z,95.79
2022-11-12T06:50:47.837Z,96.30
2022-11-12T06:53:33.419Z,96.67
2022-11-12T06:56:18.663Z,96.70
2022-11-12T06:59:04.107Z,96.22
2022-11-12T07:01:49.415Z,96.77
2022-11-12T07:04:35.083Z,98.30
2022-11-12T07:07:20.492Z,99.09
2022-11-12T07:10:06.276Z,100.00
2022-11-12T07:12:54.169Z,100.00
2022-11-12T07:15:39.510Z,100.00
2022-11-12T07:18:25.532Z,100.00
2022-11-12T07:21:13.893Z,100.00
2022-11-12T07:23:59.307Z,100.00
2022-11-12T07:26:47.415Z,100.00
2022-11-12T07:29:47.120Z,100.00
2022-11-12T07:32:36.190Z,100.00
2022-11-12T07:35:24.022Z,100.00
2022-11-12T07:38:09.406Z,100.00
2022-11-12T07:41:02.690Z,100.00
2022-11-12T07:43:49.419Z,100.00
2022-11-12T07:46:35.097Z,100.00
2022-11-12T07:49:20.363Z,100.00
2022-11-12T07:52:05.801Z,100.00
2022-11-12T07:54:51.431Z,100.00
2022-11-12T07:57:36.670Z,100.00
2022-11-12T08:00:22.053Z,100.00
2022-11-12T08:03:07.374Z,100.00
2022-11-12T08:05:53.022Z,100.00
2022-11-12T08:08:38.061Z,100.00
2022-11-12T08:11:23.928Z,100.00
2022-11-12T08:14:09.635Z,100.00
2022-11-12T08:16:54.979Z,100.00
2022-11-12T08:19:40.457Z,100.00
2022-11-12T08:22:25.950Z,100.00
2022-11-12T08:25:11.131Z,99.52
2022-11-12T08:27:58.388Z,99.51
2022-11-12T08:30:43.879Z,99.56
2022-11-12T08:33:30.399Z,98.56
2022-11-12T08:36:17.671Z,97.17
2022-11-12T08:39:02.737Z,96.69
2022-11-12T08:41:48.112Z,96.33
2022-11-12T08:44:33.462Z,95.85
2022-11-12T08:47:18.957Z,95.21
2022-11-12T08:50:04.376Z,94.53
2022-11-12T08:52:49.993Z,93.52
2022-11-12T08:55:36.481Z,92.43
2022-11-12T08:58:22.156Z,91.06
2022-11-12T09:01:08.296Z,88.85
2022-11-12T09:03:53.595Z,86.65
2022-11-12T09:06:39.024Z,79.40
2022-11-12T09:09:24.477Z,64.92
2022-11-12T09:12:19.110Z,57.64
2022-11-12T09:15:36.271Z,48.18
2022-11-12T09:18:15.056Z,40.99
2022-11-12T09:21:06.618Z,39.07
2022-11-12T09:23:52.123Z,34.56
2022-11-12T09:26:37.540Z,33.04
2022-11-12T09:29:23.013Z,35.18
2022-11-12T09:32:08.736Z,32.10
2022-11-12T09:34:54.126Z,35.83
2022-11-12T09:37:39.749Z,36.10
2022-11-12T09:40:52.785Z,32.99
2022-11-12T09:44:01.837Z,33.98
2022-11-12T09:47:01.637Z,35.77
2022-11-12T09:50:12.358Z,33.91
2022-11-12T09:53:46.976Z,39.31
2022-11-12T09:56:32.430Z,44.44
2022-11-12T09:59:18.618Z,49.72
2022-11-12T10:02:38.229Z,52.44
2022-11-12T10:05:31.984Z,51.67
2022-11-12T10:08:24.101Z,43.34
2022-11-12T10:11:18.733Z,42.54
2022-11-12T10:14:25.160Z,43.87
2022-11-12T10:17:23.450Z,42.91
2022-11-12T10:20:38.671Z,49.50
2022-11-12T10:23:41.977Z,55.75
2022-11-12T10:26:28.673Z,61.12
2022-11-12T10:29:25.125Z,63.77
2022-11-12T10:32:15.402Z,64.58
2022-11-12T10:35:00.769Z,65.22
2022-11-12T10:37:52.176Z,54.43
2022-11-12T10:40:40.160Z,47.37
2022-11-12T10:43:25.745Z,45.59
2022-11-12T10:46:22.765Z,50.51
2022-11-12T10:49:24.270Z,53.41
2022-11-12T10:52:24.851Z,49.01
2022-11-12T10:55:19.649Z,46.69
2022-11-12T10:58:10.998Z,42.25
2022-11-12T11:01:14.434Z,45.41
2022-11-12T11:04:00.592Z,44.46
2022-11-12T11:06:46.323Z,47.00
2022-11-12T11:09:32.810Z,50.36
2022-11-12T11:12:34.943Z,56.52
2022-11-12T11:15:23.324Z,59.98
2022-11-12T11:18:12.913Z,60.39
2022-11-12T11:21:41.931Z,60.09
2022-11-12T11:24:39.837Z,58.40
2022-11-12T11:27:40.425Z,50.85
2022-11-12T11:30:26.101Z,49.26
2022-11-12T11:33:23.176Z,52.68
2022-11-12T11:36:33.190Z,55.31
2022-11-12T11:39:30.946Z,52.99
2022-11-12T11:42:16.125Z,51.08
2022-11-12T11:45:22.800Z,49.18
2022-11-12T11:48:35.299Z,51.45
2022-11-12T11:51:29.721Z,49.80
2022-11-12T11:54:53.636Z,49.29
2022-11-12T11:58:12.774Z,56.73
2022-11-12T12:01:47.478Z,57.61
2022-11-12T12:04:32.505Z,59.06
2022-11-12T12:07:23.719Z,57.92
2022-11-12T12:10:12.002Z,62.41
2022-11-12T12:13:17.958Z,64.69
2022-11-12T12:16:29.969Z,68.00
2022-11-12T12:19:43.814Z,70.18
2022-11-12T12:22:45.211Z,73.45
2022-11-12T12:25:36.942Z,75.45
2022-11-12T12:28:37.627Z,75.48
2022-11-12T12:31:29.679Z,76.65
2022-11-12T12:34:26.701Z,77.70
2022-11-12T12:37:30.155Z,78.14
2022-11-12T12:40:37.438Z,79.54
2022-11-12T12:43:27.576Z,79.46
2022-11-12T12:46:16.633Z,79.71
2022-11-12T12:49:05.169Z,80.57
2022-11-12T12:51:55.579Z,80.79
2022-11-12T12:54:40.937Z,80.35
2022-11-12T12:57:31.104Z,81.08
2022-11-12T13:00:32.993Z,82.17
2022-11-12T13:03:46.274Z,82.79
2022-11-12T13:06:53.702Z,83.48
2022-11-12T13:09:39.259Z,83.43
2022-11-12T13:13:03.007Z,82.22
2022-11-12T13:15:55.138Z,80.91
2022-11-12T13:18:40.663Z,80.67
2022-11-12T13:21:25.924Z,80.88
2022-11-12T13:24:11.428Z,81.61
2022-11-12T13:27:00.300Z,82.37
2022-11-12T13:29:47.821Z,83.56
2022-11-12T13:32:36.463Z,83.94
2022-11-12T13:35:26.883Z,84.85
2022-11-12T13:38:17.146Z,85.52
2022-11-12T13:41:12.015Z,85.67
2022-11-12T13:43:57.805Z,85.42
2022-11-12T13:46:44.750Z,85.33
2022-11-12T13:49:30.525Z,84.63
2022-11-12T13:52:16.275Z,83.93
2022-11-12T13:55:03.650Z,84.52
2022-11-12T13:57:54.467Z,84.47
2022-11-12T14:00:39.933Z,84.46
2022-11-12T14:03:31.394Z,84.58
2022-11-12T14:06:22.415Z,85.06
2022-11-12T14:09:16.682Z,84.67
2022-11-12T14:12:31.239Z,84.86
2022-11-12T14:15:35.894Z,84.99
2022-11-12T14:18:39.163Z,85.26
2022-11-12T14:21:24.561Z,85.53
2022-11-12T14:24:12.558Z,86.03
2022-11-12T14:26:57.749Z,86.64
2022-11-12T14:29:43.974Z,87.31
2022-11-12T14:32:36.844Z,87.41
2022-11-12T14:35:25.663Z,86.73
2022-11-12T14:38:26.916Z,87.74
2022-11-12T14:41:24.208Z,89.06
2022-11-12T14:44:18.334Z,89.89
2022-11-12T14:47:04.289Z,90.28
2022-11-12T14:49:50.355Z,90.58
2022-11-12T14:52:41.985Z,90.38
2022-11-12T14:55:33.508Z,90.55
2022-11-12T14:58:21.241Z,90.77
2022-11-12T15:04:44.466Z,91.36
2022-11-12T15:07:57.215Z,92.85
2022-11-12T15:10:44.963Z,93.17
2022-11-12T15:27:42.004Z,97.64
2022-11-12T15:30:32.314Z,97.00
2022-11-12T15:33:22.666Z,96.47
2022-11-12T15:36:18.218Z,96.10
2022-11-12T15:39:04.971Z,96.15
2022-11-12T15:42:12.218Z,96.05
2022-11-12T15:45:00.965Z,95.66
2022-11-12T15:47:46.377Z,95.88
2022-11-12T15:50:31.833Z,95.50
2022-11-12T15:53:17.417Z,96.28
2022-11-12T15:56:03.750Z,95.83
2022-11-12T15:58:49.178Z,95.62
2022-11-12T16:01:35.186Z,95.78
2022-11-12T16:04:20.868Z,95.55
2022-11-12T16:07:07.185Z,95.54
2022-11-12T16:09:52.850Z,94.80
2022-11-12T16:12:37.918Z,95.21
2022-11-12T16:15:25.646Z,95.49
2022-11-12T16:18:12.304Z,95.26
2022-11-12T16:20:58.072Z,96.26
2022-11-12T16:23:43.417Z,96.10
2022-11-12T16:26:30.867Z,96.66
2022-11-12T16:29:16.627Z,96.29
2022-11-12T16:32:02.786Z,96.98
2022-11-12T16:34:48.144Z,97.64
2022-11-12T16:37:33.766Z,97.32
2022-11-12T16:40:21.999Z,98.00
2022-11-12T16:43:07.493Z,98.30
2022-11-12T16:45:52.753Z,98.05
2022-11-12T16:48:38.348Z,97.91
2022-11-12T16:51:24.132Z,97.92
2022-11-12T16:54:09.569Z,97.32
2022-11-12T16:56:54.647Z,97.02
2022-11-12T16:59:40.038Z,97.17
2022-11-12T17:02:25.386Z,96.09
2022-11-12T17:05:20.375Z,96.06
2022-11-12T17:08:06.102Z,96.24
2022-11-12T17:10:51.566Z,95.87
2022-11-12T17:13:38.820Z,96.55
2022-11-12T17:16:24.374Z,95.73
2022-11-12T17:19:10.651Z,95.52
2022-11-12T17:21:55.934Z,95.48
2022-11-12T17:24:41.429Z,95.18
2022-11-12T17:27:27.517Z,94.89
2022-11-12T17:30:13.508Z,95.06
2022-11-12T17:33:00.100Z,94.59
2022-11-12T17:35:45.395Z,94.58
2022-11-12T17:38:30.923Z,94.57
2022-11-12T17:41:16.281Z,94.11
2022-11-12T17:44:02.466Z,94.23
2022-11-12T17:46:48.500Z,93.87
2022-11-12T17:49:33.965Z,93.45
2022-11-12T17:52:19.366Z,93.83
2022-11-12T17:55:05.160Z,94.12
2022-11-12T17:57:50.569Z,93.75
2022-11-12T18:00:36.647Z,93.81
2022-11-12T18:03:22.013Z,93.79
2022-11-12T18:06:12.517Z,93.46
2022-11-12T18:09:04.613Z,93.81
2022-11-12T18:11:54.804Z,94.38
2022-11-12T18:14:40.233Z,93.70
2022-11-12T18:17:25.698Z,93.61
2022-11-12T18:20:11.424Z,94.31
2022-11-12T18:22:56.916Z,94.24
2022-11-12T18:25:42.395Z,94.81
2022-11-12T18:28:27.917Z,95.42
2022-11-12T18:31:13.554Z,95.78
2022-11-12T18:33:58.919Z,96.11
2022-11-12T18:36:44.357Z,95.76
2022-11-12T18:39:30.895Z,97.00
2022-11-12T18:42:16.224Z,96.82
2022-11-12T18:45:01.777Z,96.87
2022-11-12T18:47:47.211Z,95.63
2022-11-12T18:50:32.613Z,95.46
2022-11-12T18:53:18.178Z,95.43
2022-11-12T18:56:12.585Z,95.00
2022-11-12T18:58:57.722Z,95.10
2022-11-12T19:01:43.145Z,94.35
2022-11-12T19:04:29.144Z,94.48
2022-11-12T19:07:14.899Z,95.24
2022-11-12T19:10:00.170Z,95.71
2022-11-12T19:12:45.513Z,95.28
2022-11-12T19:15:34.151Z,95.01
2022-11-12T19:18:19.927Z,95.47
2022-11-12T19:21:16.902Z,95.34
2022-11-12T19:24:02.700Z,95.19
2022-11-12T19:26:47.813Z,95.16
2022-11-12T19:29:33.218Z,95.69
2022-11-12T19:32:18.586Z,95.92
2022-11-12T19:35:04.194Z,95.60
2022-11-12T19:37:49.446Z,95.88
2022-11-12T19:40:34.708Z,95.99
2022-11-12T19:43:21.867Z,96.37
2022-11-12T19:46:07.924Z,97.45
2022-11-12T19:48:52.996Z,97.42
2022-11-12T19:51:38.494Z,98.16
2022-11-12T19:54:24.067Z,98.54
2022-11-12T19:57:09.617Z,97.98
2022-11-12T19:59:55.160Z,97.51
2022-11-12T20:02:40.682Z,97.43
2022-11-12T20:05:26.126Z,97.09
2022-11-12T20:08:11.417Z,96.58
2022-11-12T20:10:57.150Z,95.70
2022-11-12T20:13:42.559Z,95.58
2022-11-12T20:16:27.887Z,96.14
2022-11-12T20:19:13.305Z,95.42
2022-11-12T20:21:58.649Z,95.45
2022-11-12T20:24:44.167Z,95.54
2022-11-12T20:27:29.732Z,95.92
2022-11-12T20:30:15.004Z,96.02
2022-11-12T20:33:00.464Z,96.91
2022-11-12T20:35:45.746Z,96.75
2022-11-12T20:38:31.331Z,97.00
2022-11-12T20:41:22.237Z,97.43
2022-11-12T20:44:07.265Z,97.18
2022-11-12T20:46:52.629Z,97.58
2022-11-12T20:49:38.086Z,97.23
2022-11-12T20:52:23.335Z,97.42
2022-11-12T20:55:09.226Z,97.63
2022-11-12T20:57:54.655Z,97.44
2022-11-12T21:00:40.789Z,97.25
2022-11-12T21:03:25.911Z,97.65
2022-11-12T21:06:16.996Z,97.80
2022-11-12T21:09:02.920Z,98.60
2022-11-12T21:11:48.077Z,98.82
2022-11-12T21:14:33.491Z,99.49
2022-11-12T21:17:19.828Z,99.25
2022-11-12T21:20:05.751Z,100.00
2022-11-12T21:22:51.026Z,99.96
2022-11-12T21:25:38.219Z,100.00
2022-11-12T21:28:24.065Z,99.89
2022-11-12T21:31:12.950Z,100.00
2022-11-12T21:34:00.995Z,100.00
2022-11-12T21:36:46.275Z,100.00
2022-11-12T21:39:31.558Z,100.00
2022-11-12T21:42:16.947Z,100.00
2022-11-12T21:45:02.453Z,100.00
2022-11-12T21:47:47.793Z,100.00
2022-11-12T21:50:33.291Z,100.00
2022-11-12T21:53:18.987Z,100.00
2022-11-12T21:56:06.687Z,100.00
2022-11-12T21:58:54.214Z,100.00
2022-11-12T22:01:40.669Z,100.00
2022-11-12T22:04:26.066Z,100.00
2022-11-12T22:07:11.567Z,100.00
2022-11-12T22:09:57.289Z,100.00
2022-11-12T22:13:04.892Z,100.00
2022-11-12T22:15:50.685Z,100.00
2022-11-12T22:18:37.016Z,100.00
2022-11-12T22:21:24.045Z,100.00
2022-11-12T22:24:11.047Z,100.00
2022-11-12T22:26:58.882Z,100.00
2022-11-12T22:29:49.246Z,100.00
2022-11-12T22:32:34.870Z,100.00
2022-11-12T22:35:20.183Z,100.00
2022-11-12T22:38:05.724Z,100.00
2022-11-12T22:40:50.706Z,100.00
2022-11-12T22:43:39.370Z,100.00
2022-11-12T22:46:30.443Z,100.00
2022-11-12T22:49:15.409Z,100.00
2022-11-12T22:52:00.826Z,100.00
2022-11-12T22:54:46.109Z,100.00
2022-11-12T22:57:32.229Z,100.00
2022-11-12T23:00:20.041Z,100.00
2022-11-12T23:03:05.689Z,100.00
2022-11-12T23:05:57.796Z,100.00
2022-11-12T23:08:43.392Z,100.00
2022-11-12T23:11:29.281Z,100.00
2022-11-12T23:14:14.633Z,100.00
2022-11-12T23:17:01.313Z,100.00
2022-11-12T23:19:46.495Z,100.00
2022-11-12T23:22:31.978Z,100.00
2022-11-12T23:25:17.453Z,99.85
2022-11-12T23:28:02.590Z,100.00
2022-11-12T23:30:52.880Z,100.00
2022-11-12T23:33:38.638Z,99.01
2022-11-12T23:36:26.054Z,98.55
2022-11-12T23:39:11.786Z,97.83
2022-11-12T23:41:57.114Z,98.02
2022-11-12T23:44:42.567Z,97.13
2022-11-12T23:47:28.248Z,97.23
2022-11-12T23:50:13.938Z,96.42
2022-11-12T23:52:59.397Z,96.36
2022-11-12T23:55:44.838Z,96.02
2022-11-12T23:58:31.443Z,95.77
